EDDH/HAM METAR and TAF weather

Enter ICAO airport designator
Station Type Date Time Source
EDDH METAR 2020/12/05 06:20 UTC NOAA

EDDH 050620Z 09006KT 050V130 9999 FEW040 02/M00 Q0994 NOSIG


Station Type Date Time Source
EDDH Decoded METAR 2020/12/05 06:20 UTC NOAA

Hamburg-Fuhlsbuettel, Germany (EDDH) 53-38N 010-00E 15M
Dec 05, 2020 - 01:20 AM EST / 2020.12.05 0620 UTC
Wind: from the E (090 degrees) at 7 MPH (6 KT) (direction variable):0
Visibility: greater than 7 mile(s):0
Sky conditions: mostly clear
Temperature: 35 F (2 C)
Windchill: 28 F (-2 C):1
Dew Point: 32 F (0 C)
Relative Humidity: 86%
Pressure (altimeter): 29.35 in. Hg (0994 hPa)
ob: EDDH 050620Z 09006KT 050V130 9999 FEW040 02/M00 Q0994 NOSIG
cycle: 6

Station Type Date Time Source
EDDH TAF 2020/12/05 06:27 UTC NOAA

TAF EDDH 050500Z 0506/0612 09007KT 9999 SCT040 PROB30
TEMPO 0506/0509 BKN012
BECMG 0509/0511 21007KT
BECMG 0518/0520 15003KT
TEMPO 0521/0607 2500 -RA BCFG BKN009 PROB30
TEMPO 0606/0610 4500 BR BKN010

Example: see airport list